Historique des mesures à Cassis (13260), France
Quotidien Résumé Octobre 13, 2018 Unités:  Métrique/US    US   Métrique
« Précédent (Jour)
Suivant (Jour) »
Quotidien Hebdomadaire Mensuel Annuel Période au choix
  Maximum: Minimum: Moyenne:
Température: 32 °F /  TemperatureC °C 61.3 °F /  16.3 °C 66 °F /  18.9 °C
Point de rosée: 32 °F /  DewpointC °C 50.5 °F /  10.3 °C 56.5 °F /  13.6 °C
Humidité: Humidity % 56 % 68 %
Vitesse du vent: WindSpeedKMH mph /  0 km/h - 2.1 mph /  3.4 km/h
Rafales: WindSpeedGustKMH mph /  0 km/h - -
Vent:- - South
Pression: 0 in /  PressurehPa hPa 30 in /  1015.2 hPa -
Précipitations: 0 in /  0.0 mm    
Historical Graphs
 
 
Mesures pour : Octobre 13, 2018
Heure Temperature Point de rosée Pression Vent Vitesse du vent Rafales Humidité Pluie (par heure) Conditions
32 °F /  TemperatureC °C 32 °F /  DewpointC °C 0 in /  PressurehPa hPa Calm     Humidity % 0 in /  HourlyPrecipMM mm SoftwareType W/m2
00:10 64 °F /  17.8 °C 57.4 °F /  14.1 °C 30.1 in /  1020.3 hPa Calm     79 % 0 in /  0.0 mm open2300-1.11 W/m2
01:10 63.1 °F /  17.3 °C 56.8 °F /  13.8 °C 30.1 in /  1019.6 hPa WNW 4.0 mph /  6.4 km/h 4.0 mph /  6.4 km/h 80 % 0 in /  0.0 mm open2300-1.11 W/m2
02:10 63.7 °F /  17.6 °C 56.3 °F /  13.5 °C 30.1 in /  1019.6 hPa NW 2.5 mph /  4 km/h 2.5 mph /  4 km/h 77 % 0 in /  0.0 mm open2300-1.11 W/m2
03:10 63.1 °F /  17.3 °C 55.8 °F /  13.2 °C 30.1 in /  1019.4 hPa NNW 1.4 mph /  2.3 km/h 1.4 mph /  2.3 km/h 77 % 0 in /  0.0 mm open2300-1.11 W/m2
04:10 61.9 °F /  16.6 °C 54.5 °F /  12.5 °C 30.1 in /  1019.1 hPa Calm   5.8 mph /  9.3 km/h 77 % 0 in /  0.0 mm open2300-1.11 W/m2
05:10 61.3 °F /  16.3 °C 54.5 °F /  12.5 °C 30.1 in /  1019.1 hPa NW 2.5 mph /  4 km/h 3.2 mph /  5.1 km/h 78 % 0 in /  0.0 mm open2300-1.11 W/m2
06:10 61.3 °F /  16.3 °C 54.5 °F /  12.5 °C 30.1 in /  1018.7 hPa Calm     78 % 0 in /  0.0 mm open2300-1.11 W/m2
07:10 62.2 °F /  16.8 °C 55.2 °F /  12.9 °C 30.1 in /  1018.6 hPa Calm     78 % 0 in /  0.0 mm open2300-1.11 W/m2
08:10 61.9 °F /  16.6 °C 55.2 °F /  12.9 °C 30.1 in /  1018.3 hPa Calm     79 % 0 in /  0.0 mm open2300-1.11 W/m2
09:10 64.8 °F /  18.2 °C 57.7 °F /  14.3 °C 30.1 in /  1018.2 hPa Calm     78 % 0 in /  0.0 mm open2300-1.11 W/m2
10:10 67.6 °F /  19.8 °C 58.3 °F /  14.6 °C 30.1 in /  1018.5 hPa Calm   7.2 mph /  11.6 km/h 72 % 0 in /  0.0 mm open2300-1.11 W/m2
11:10 70 °F /  21.1 °C 60.1 °F /  15.6 °C 30.1 in /  1018.6 hPa SSE 10.1 mph /  16.3 km/h 10.1 mph /  16.3 km/h 71 % 0 in /  0.0 mm open2300-1.11 W/m2
12:10 72.3 °F /  22.4 °C 61.7 °F /  16.5 °C 30.1 in /  1018.4 hPa Calm     69 % 0 in /  0.0 mm open2300-1.11 W/m2
13:10 73.9 °F /  23.3 °C 62.2 °F /  16.8 °C 30.1 in /  1018.2 hPa SE 5.4 mph /  8.7 km/h 5.4 mph /  8.7 km/h 67 % 0 in /  0.0 mm open2300-1.11 W/m2
14:10 74.3 °F /  23.5 °C 63.1 °F /  17.3 °C 30 in /  1017.4 hPa North 3.2 mph /  5.1 km/h 3.6 mph /  5.8 km/h 68 % 0 in /  0.0 mm open2300-1.11 W/m2
15:10 73.9 °F /  23.3 °C 63.7 °F /  17.6 °C 30 in /  1016.8 hPa NNW 2.2 mph /  3.5 km/h 2.5 mph /  4 km/h 70 % 0 in /  0.0 mm open2300-1.11 W/m2
16:10 74.1 °F /  23.4 °C 63.3 °F /  17.4 °C 30 in /  1016.3 hPa Calm   3.2 mph /  5.1 km/h 69 % 0 in /  0.0 mm open2300-1.11 W/m2
17:10 73.8 °F /  23.2 °C 59.4 °F /  15.2 °C 30 in /  1015.6 hPa ESE 6.5 mph /  10.5 km/h 7.6 mph /  12.2 km/h 61 % 0 in /  0.0 mm open2300-1.11 W/m2
18:10 72.7 °F /  22.6 °C 59.4 °F /  15.2 °C 30 in /  1015.4 hPa SSE 1.4 mph /  2.3 km/h 1.4 mph /  2.3 km/h 63 % 0 in /  0.0 mm open2300-1.11 W/m2
19:10 70.2 °F /  21.2 °C 57.4 °F /  14.1 °C 30 in /  1015.6 hPa East 4.3 mph /  6.9 km/h 4.3 mph /  6.9 km/h 64 % 0 in /  0.0 mm open2300-1.11 W/m2
20:10 68.5 °F /  20.3 °C 55.4 °F /  13.0 °C 30 in /  1015.6 hPa ESE 1.4 mph /  2.3 km/h 5.0 mph /  8 km/h 63 % 0 in /  0.0 mm open2300-1.11 W/m2
21:10 66.9 °F /  19.4 °C 53.4 °F /  11.9 °C 30 in /  1015.2 hPa Calm   2.2 mph /  3.5 km/h 62 % 0 in /  0.0 mm open2300-1.11 W/m2
22:10 67.1 °F /  19.5 °C 52.9 °F /  11.6 °C 30 in /  1015.2 hPa ESE 4.0 mph /  6.4 km/h 4.0 mph /  6.4 km/h 60 % 0 in /  0.0 mm open2300-1.11 W/m2
23:10 66.7 °F /  19.3 °C 50.5 °F /  10.3 °C 30 in /  1015.2 hPa ESE 2.5 mph /  4 km/h 5.0 mph /  8 km/h 56 % 0 in /  0.0 mm open2300-1.11 W/m2
Observations météo à CASSIS
WU-History script by Weather Underground - 1 mb